Maratha Promise — V7YE5 — position and weather

sailwx.info

Track history (hours):
 
Tides and Currents Weather Stations Pressure Air Temp Water Temp Dewpoint Dewpoint Depression Visibility Wind Speed Wind Dir Waves Ship Positions

Maratha Promise

Last reported at 2018-Jan-24 23:58 UTC. Time now 2018-Feb-19 06:04 UTC.
Position N 34°11' E 138°22'.
Warning: this ship's position is 25 days out of date.

Length 178 m; draft 7.3 m.

Type: Cargo ship. MMSI: 538004641.

Date/timePositionNaut miles runAvg speedWind from/ knotsBaromVisibWave heightAir tempDewpointWater temp
2018-Jan-24 23:58N 34°11' E 138°22'4 7.4
2018-Jan-24 23:30N 34°13' E 138°26'4 7.8
2018-Jan-24 23:00N 34°15' E 138°30'4 7.5
2018-Jan-24 22:28N 34°17' E 138°34'4 7.7
2018-Jan-24 22:00N 34°19' E 138°37'4 7.4
2018-Jan-24 21:28N 34°21' E 138°41'4 7.7
2018-Jan-24 21:00N 34°22' E 138°45'4 7.7
2018-Jan-24 20:29N 34°24' E 138°49'4 7.5
2018-Jan-24 19:56N 34°26' E 138°54'3 7.3
2018-Jan-24 19:30N 34°28' E 138°57'4 7.1
2018-Jan-24 19:00N 34°30' E 139°00'3 6.9
2018-Jan-24 18:30N 34°33' E 139°03'4 7.5
2018-Jan-24 18:00N 34°36' E 139°06'5 8.3
2018-Jan-24 17:28N 34°40' E 139°08'4 8.7
2018-Jan-24 16:57N 34°44' E 139°11'4 9.1
2018-Jan-24 16:30N 34°47' E 139°14'6 9.0
2018-Jan-24 15:51N 34°51' E 139°19'3 9.4
2018-Jan-24 15:30N 34°54' E 139°21'5 8.8
2018-Jan-24 14:59N 34°55' E 139°27'4 9.1
2018-Jan-24 14:30N 34°54' E 139°32'4 8.7
2018-Jan-24 14:00N 34°52' E 139°37'5 7.8
2018-Jan-24 13:26N 34°50' E 139°42'4 7.7
2018-Jan-24 12:58N 34°49' E 139°46'4 8.2
2018-Jan-24 12:30N 34°50' E 139°50'5 9.5
2018-Jan-24 11:55N 34°49' E 139°57'4 9.4
2018-Jan-24 11:27N 34°50' E 140°02'5 9.0
2018-Jan-24 10:52N 34°52' E 140°08'4 8.7
2018-Jan-24 10:26N 34°53' E 140°12'4 8.5
2018-Jan-24 09:59N 34°55' E 140°16'4 8.5
2018-Jan-24 09:30N 34°57' E 140°21'  
2018-Jan-18 14:08N 41°21' E 141°48'1112.8
2018-Jan-18 13:15N 41°32' E 141°44'513.0
2018-Jan-18 12:52N 41°37' E 141°40'613.2
2018-Jan-18 12:25N 41°40' E 141°34'512.8
2018-Jan-18 12:00N 41°43' E 141°28'612.9
2018-Jan-18 11:30N 41°48' E 141°22'712.9
2018-Jan-18 11:00N 41°53' E 141°17'  
Track history (hours):
 
Tides and Currents Weather Stations Pressure Air Temp Water Temp Dewpoint Dewpoint Depression Visibility Wind Speed Wind Dir Waves Ship Positions

Maratha Promise

Last reported at 2018-Jan-24 23:58 UTC. Time now 2018-Feb-19 06:04 UTC.
Position N 34°11' E 138°22'.
Warning: this ship's position is 25 days out of date.

Length 178 m; draft 7.3 m.

Type: Cargo ship. MMSI: 538004641.

Date/timePositionNaut miles runAvg speedWind from/ knotsBaromVisibWave heightAir tempDewpointWater temp
2018-Jan-24 23:58N 34°11' E 138°22'4 7.4
2018-Jan-24 23:30N 34°13' E 138°26'4 7.8
2018-Jan-24 23:00N 34°15' E 138°30'4 7.5
2018-Jan-24 22:28N 34°17' E 138°34'4 7.7
2018-Jan-24 22:00N 34°19' E 138°37'4 7.4
2018-Jan-24 21:28N 34°21' E 138°41'4 7.7
2018-Jan-24 21:00N 34°22' E 138°45'4 7.7
2018-Jan-24 20:29N 34°24' E 138°49'4 7.5
2018-Jan-24 19:56N 34°26' E 138°54'3 7.3
2018-Jan-24 19:30N 34°28' E 138°57'4 7.1
2018-Jan-24 19:00N 34°30' E 139°00'3 6.9
2018-Jan-24 18:30N 34°33' E 139°03'4 7.5
2018-Jan-24 18:00N 34°36' E 139°06'5 8.3
2018-Jan-24 17:28N 34°40' E 139°08'4 8.7
2018-Jan-24 16:57N 34°44' E 139°11'4 9.1
2018-Jan-24 16:30N 34°47' E 139°14'6 9.0
2018-Jan-24 15:51N 34°51' E 139°19'3 9.4
2018-Jan-24 15:30N 34°54' E 139°21'5 8.8
2018-Jan-24 14:59N 34°55' E 139°27'4 9.1
2018-Jan-24 14:30N 34°54' E 139°32'4 8.7
2018-Jan-24 14:00N 34°52' E 139°37'5 7.8
2018-Jan-24 13:26N 34°50' E 139°42'4 7.7
2018-Jan-24 12:58N 34°49' E 139°46'4 8.2
2018-Jan-24 12:30N 34°50' E 139°50'5 9.5
2018-Jan-24 11:55N 34°49' E 139°57'4 9.4
2018-Jan-24 11:27N 34°50' E 140°02'5 9.0
2018-Jan-24 10:52N 34°52' E 140°08'4 8.7
2018-Jan-24 10:26N 34°53' E 140°12'4 8.5
2018-Jan-24 09:59N 34°55' E 140°16'4 8.5
2018-Jan-24 09:30N 34°57' E 140°21'  
2018-Jan-18 14:08N 41°21' E 141°48'1112.8
2018-Jan-18 13:15N 41°32' E 141°44'513.0
2018-Jan-18 12:52N 41°37' E 141°40'613.2
2018-Jan-18 12:25N 41°40' E 141°34'512.8
2018-Jan-18 12:00N 41°43' E 141°28'612.9
2018-Jan-18 11:30N 41°48' E 141°22'712.9
2018-Jan-18 11:00N 41°53' E 141°17'  

Dump ship's entire track history